createdAt,value
2016-04-18T00:00:19.037Z,953.87
2016-04-18T00:01:19.007Z,953.9
2016-04-18T00:02:18.979Z,954.01
2016-04-18T00:03:18.998Z,954.04
2016-04-18T00:04:18.218Z,954.07
2016-04-18T00:05:18.160Z,954.06
2016-04-18T00:06:18.193Z,954.11
2016-04-18T00:07:18.993Z,954.07
2016-04-18T00:08:18.855Z,954.03
2016-04-18T00:09:18.826Z,954.01
2016-04-18T00:10:18.376Z,954.01
2016-04-18T00:11:19.128Z,954.03
2016-04-18T00:12:18.100Z,954.01
2016-04-18T00:13:19.352Z,954.01
2016-04-18T00:14:25.292Z,953.98
2016-04-18T00:15:18.285Z,953.95
2016-04-18T00:16:18.080Z,953.95
2016-04-18T00:17:18.142Z,953.95
2016-04-18T00:18:18.188Z,953.98
2016-04-18T00:19:18.984Z,953.96
2016-04-18T00:20:19.141Z,953.97
2016-04-18T00:21:18.393Z,953.97
2016-04-18T00:22:19.270Z,953.93
2016-04-18T00:23:18.242Z,953.9
2016-04-18T00:24:19.104Z,953.9
2016-04-18T00:25:18.242Z,953.92
2016-04-18T00:26:18.375Z,953.91
2016-04-18T00:27:18.228Z,953.94
2016-04-18T00:28:19.002Z,953.91
2016-04-18T00:29:18.214Z,953.97
2016-04-18T00:30:19.251Z,954
2016-04-18T00:31:19.100Z,954.03
2016-04-18T00:32:19.182Z,954.09
2016-04-18T00:33:18.171Z,954.11
2016-04-18T00:34:18.160Z,954.09
2016-04-18T00:35:18.148Z,954.13
2016-04-18T00:36:19.058Z,954.14
2016-04-18T00:37:18.124Z,954.14
2016-04-18T00:38:18.315Z,954.14
2016-04-18T00:39:18.568Z,954.15
2016-04-18T00:40:18.087Z,954.14
2016-04-18T00:41:19.262Z,954.1
2016-04-18T00:42:19.172Z,954.1
2016-04-18T00:43:18.628Z,954.07
2016-04-18T00:44:18.819Z,954.11
2016-04-18T00:45:18.728Z,954.11
2016-04-18T00:46:18.011Z,954.05
2016-04-18T00:47:19.061Z,954.04
2016-04-18T00:48:18.079Z,954.02
2016-04-18T00:49:17.973Z,954.04
2016-04-18T00:50:18.961Z,954.03
2016-04-18T00:51:18.900Z,954.05
2016-04-18T00:52:19.669Z,954.04
2016-04-18T00:53:18.686Z,954.09
2016-04-18T00:54:18.627Z,954.09
2016-04-18T00:55:18.942Z,954.15
2016-04-18T00:56:18.649Z,954.17
2016-04-18T00:57:18.729Z,954.14
2016-04-18T00:58:19.154Z,954.13
2016-04-18T00:59:17.860Z,954.1
2016-04-18T01:00:18.019Z,954.05
2016-04-18T01:01:17.818Z,954.06
2016-04-18T01:02:20.415Z,954.05
2016-04-18T01:04:05.607Z,954.13
2016-04-18T01:05:52.941Z,954.16
2016-04-18T01:07:38.662Z,954.17
2016-04-18T01:09:23.683Z,954.09
2016-04-18T01:11:04.001Z,954.09
2016-04-18T01:12:49.240Z,954.16
2016-04-18T01:14:33.822Z,954.18
2016-04-18T01:16:20.608Z,954.24
2016-04-18T01:18:09.785Z,954.32
2016-04-18T01:19:51.978Z,954.4
2016-04-18T01:21:40.543Z,954.37
2016-04-18T01:23:12.955Z,954.37
2016-04-18T01:25:02.680Z,954.44
2016-04-18T01:26:54.277Z,954.38
2016-04-18T01:28:44.672Z,954.34
2016-04-18T01:30:52.414Z,954.28
2016-04-18T01:32:02.213Z,954.33
2016-04-18T01:33:03.248Z,954.32
2016-04-18T01:34:03.141Z,954.4
2016-04-18T01:35:02.254Z,954.35
2016-04-18T01:36:04.381Z,954.39
2016-04-18T01:37:24.821Z,954.39
2016-04-18T01:38:49.076Z,954.34
2016-04-18T01:40:09.469Z,954.37
2016-04-18T01:41:34.066Z,954.33
2016-04-18T01:43:07.368Z,954.45
2016-04-18T01:44:30.403Z,954.49
2016-04-18T01:45:52.376Z,954.55
2016-04-18T01:47:05.879Z,954.52
2016-04-18T01:48:28.850Z,954.54
2016-04-18T01:49:43.197Z,954.54
2016-04-18T01:51:03.171Z,954.56
2016-04-18T01:52:21.408Z,954.61
2016-04-18T01:53:41.520Z,954.59
2016-04-18T01:54:55.713Z,954.63
2016-04-18T01:56:17.560Z,954.6
2016-04-18T01:57:41.469Z,954.6
2016-04-18T01:59:01.818Z,954.55
2016-04-18T02:00:26.851Z,954.46
2016-04-18T02:01:47.479Z,954.5
2016-04-18T02:03:13.312Z,954.49
2016-04-18T02:04:32.832Z,954.53
2016-04-18T02:05:56.445Z,954.54
2016-04-18T02:06:44.445Z,954.51
2016-04-18T02:07:44.073Z,954.52
2016-04-18T02:08:43.530Z,954.56
2016-04-18T02:09:44.423Z,954.57
2016-04-18T02:10:43.362Z,954.62
2016-04-18T02:11:43.334Z,954.7
2016-04-18T02:13:43.309Z,954.71
2016-04-18T02:14:44.233Z,954.75
2016-04-18T02:15:44.032Z,954.73
2016-04-18T02:16:43.270Z,954.71
2016-04-18T02:17:44.225Z,954.67
2016-04-18T02:18:44.009Z,954.66
2016-04-18T02:19:43.215Z,954.67
2016-04-18T02:20:43.953Z,954.74
2016-04-18T02:21:43.189Z,954.7
2016-04-18T02:22:43.380Z,954.71
2016-04-18T02:23:44.007Z,954.68
2016-04-18T02:24:44.119Z,954.7
2016-04-18T02:25:44.183Z,954.69
2016-04-18T02:26:43.125Z,954.69
2016-04-18T02:27:43.861Z,954.7
2016-04-18T02:28:43.099Z,954.74
2016-04-18T02:29:43.102Z,954.73
2016-04-18T02:30:43.729Z,954.74
2016-04-18T02:31:43.060Z,954.75
2016-04-18T02:32:43.047Z,954.78
2016-04-18T02:33:43.034Z,954.83
2016-04-18T02:34:42.943Z,954.83
2016-04-18T02:35:42.993Z,954.86
2016-04-18T02:36:43.010Z,954.89
2016-04-18T02:37:43.951Z,954.88
2016-04-18T02:38:43.156Z,954.91
2016-04-18T02:39:42.957Z,954.9
2016-04-18T02:40:42.975Z,954.86
2016-04-18T02:41:42.931Z,954.87
2016-04-18T02:42:42.871Z,954.86
2016-04-18T02:43:42.904Z,954.85
2016-04-18T02:44:43.719Z,954.86
2016-04-18T02:45:42.878Z,954.9
2016-04-18T02:46:43.069Z,954.85
2016-04-18T02:47:44.072Z,954.8
2016-04-18T02:48:43.042Z,954.85
2016-04-18T02:49:43.030Z,954.8
2016-04-18T02:50:43.845Z,954.84
2016-04-18T02:51:42.739Z,954.83
2016-04-18T02:52:43.600Z,954.87
2016-04-18T02:53:43.806Z,954.86
2016-04-18T02:54:44.997Z,954.86
2016-04-18T02:55:42.969Z,954.83
2016-04-18T02:56:43.705Z,954.86
2016-04-18T02:57:43.520Z,954.84
2016-04-18T02:58:42.757Z,954.85
2016-04-18T02:59:43.495Z,954.88
2016-04-18T03:00:42.887Z,954.89
2016-04-18T03:01:43.985Z,954.89
2016-04-18T03:02:43.471Z,954.9
2016-04-18T03:03:43.646Z,954.88
2016-04-18T03:04:42.835Z,954.89
2016-04-18T03:05:42.620Z,954.85
2016-04-18T03:06:42.810Z,954.84
2016-04-18T03:07:43.516Z,954.81
2016-04-18T03:08:43.863Z,954.82
2016-04-18T03:09:42.772Z,954.83
2016-04-18T03:10:42.759Z,954.83
2016-04-18T03:11:42.543Z,954.83
2016-04-18T03:12:42.529Z,954.83
2016-04-18T03:13:43.485Z,954.81
2016-04-18T03:14:43.582Z,954.79
2016-04-18T03:15:42.663Z,954.76
2016-04-18T03:16:42.478Z,954.79
2016-04-18T03:17:43.309Z,954.82
2016-04-18T03:18:42.390Z,954.84
2016-04-18T03:19:42.439Z,954.9
2016-04-18T03:20:42.426Z,954.89
2016-04-18T03:21:43.413Z,954.88
2016-04-18T03:22:42.541Z,954.92
2016-04-18T03:23:42.575Z,954.84
2016-04-18T03:24:42.578Z,954.87
2016-04-18T03:25:42.361Z,954.8
2016-04-18T03:26:42.333Z,954.77
2016-04-18T03:27:45.007Z,954.74
2016-04-18T03:29:29.855Z,954.78
2016-04-18T03:31:18.143Z,954.78
2016-04-18T03:33:20.899Z,954.8
2016-04-18T03:35:29.216Z,954.76
2016-04-18T03:37:33.393Z,954.76
2016-04-18T03:39:29.024Z,954.75
2016-04-18T03:41:42.092Z,954.73
2016-04-18T03:44:18.225Z,954.71
2016-04-18T03:46:33.839Z,954.59
2016-04-18T03:48:44.892Z,954.65
2016-04-18T03:51:15.775Z,954.68
2016-04-18T03:53:33.780Z,954.72
2016-04-18T03:55:24.644Z,954.78
2016-04-18T03:57:33.963Z,954.82
2016-04-18T03:58:33.997Z,954.82
2016-04-18T03:59:34.937Z,954.83
2016-04-18T04:00:33.971Z,954.86
2016-04-18T04:01:34.099Z,954.87
2016-04-18T04:02:34.805Z,954.9
2016-04-18T04:03:34.636Z,954.9
2016-04-18T04:04:34.107Z,954.92
2016-04-18T04:05:33.907Z,954.92
2016-04-18T04:06:33.877Z,954.93
2016-04-18T04:07:33.865Z,954.9
2016-04-18T04:08:34.743Z,954.86
2016-04-18T04:09:33.885Z,954.87
2016-04-18T04:10:33.841Z,954.89
2016-04-18T04:11:34.469Z,954.82
2016-04-18T04:12:33.785Z,954.88
2016-04-18T04:13:33.818Z,954.88
2016-04-18T04:14:34.712Z,954.86
2016-04-18T04:15:33.777Z,954.92
2016-04-18T04:16:33.764Z,954.97
2016-04-18T04:17:34.564Z,954.99
2016-04-18T04:18:33.723Z,955.04
2016-04-18T04:19:33.678Z,955.06
2016-04-18T04:20:33.712Z,955.08
2016-04-18T04:21:33.683Z,955.09
2016-04-18T04:22:33.687Z,955.12
2016-04-18T04:23:33.658Z,955.1
2016-04-18T04:24:33.817Z,955.09
2016-04-18T04:25:34.414Z,955.11
2016-04-18T04:26:33.619Z,955.14
2016-04-18T04:27:33.575Z,955.09
2016-04-18T04:28:33.608Z,955.13
2016-04-18T04:29:33.581Z,955.13
2016-04-18T04:30:34.599Z,955.17
2016-04-18T04:31:33.523Z,955.16
2016-04-18T04:32:33.697Z,955.12
2016-04-18T04:33:34.528Z,955.12
2016-04-18T04:34:33.688Z,955.14
2016-04-18T04:35:34.362Z,955.12
2016-04-18T04:36:33.724Z,955.1
2016-04-18T04:37:34.320Z,955.15
2016-04-18T04:38:34.291Z,955.19
2016-04-18T04:39:33.544Z,955.17
2016-04-18T04:40:33.454Z,955.19
2016-04-18T04:41:33.425Z,955.16
2016-04-18T04:42:34.068Z,955.13
2016-04-18T04:43:34.243Z,955.17
2016-04-18T04:44:34.432Z,955.11
2016-04-18T04:45:33.357Z,955.12
2016-04-18T04:46:33.562Z,955.07
2016-04-18T04:47:33.346Z,955.07
2016-04-18T04:48:33.942Z,955.07
2016-04-18T04:49:34.305Z,955.11
2016-04-18T04:50:34.370Z,955.12
2016-04-18T04:51:34.655Z,955.13
2016-04-18T04:52:33.985Z,955.15
2016-04-18T04:53:33.269Z,955.13
2016-04-18T04:54:33.397Z,955.11
2016-04-18T04:55:33.977Z,955.14
2016-04-18T04:56:34.230Z,955.12
2016-04-18T04:57:34.233Z,955.15
2016-04-18T04:58:34.423Z,955.13
2016-04-18T04:59:34.738Z,955.17
2016-04-18T05:00:33.132Z,955.11
2016-04-18T05:01:33.118Z,955.09
2016-04-18T05:02:34.590Z,955.05
2016-04-18T05:03:34.076Z,955.05
2016-04-18T05:04:34.314Z,955.07
2016-04-18T05:05:33.067Z,955.04
2016-04-18T05:06:34.163Z,955.1
2016-04-18T05:07:33.104Z,955.11
2016-04-18T05:08:33.059Z,955.12
2016-04-18T05:09:33.718Z,955.18
2016-04-18T05:10:34.595Z,955.17
2016-04-18T05:11:33.020Z,955.21
2016-04-18T05:12:33.007Z,955.23
2016-04-18T05:13:32.978Z,955.26
2016-04-18T05:14:33.200Z,955.26
2016-04-18T05:15:33.187Z,955.28
2016-04-18T05:16:33.112Z,955.32
2016-04-18T05:17:33.161Z,955.29
2016-04-18T05:18:33.148Z,955.28
2016-04-18T05:19:33.135Z,955.28
2016-04-18T05:20:32.903Z,955.29
2016-04-18T05:21:33.094Z,955.27
2016-04-18T05:22:32.894Z,955.25
2016-04-18T05:23:32.880Z,955.23
2016-04-18T05:24:33.086Z,955.29
2016-04-18T05:25:32.855Z,955.37
2016-04-18T05:26:32.810Z,955.4
2016-04-18T05:27:33.063Z,955.47
2016-04-18T05:28:33.862Z,955.53
2016-04-18T05:29:32.771Z,955.55
2016-04-18T05:30:32.968Z,955.63
2016-04-18T05:31:32.783Z,955.59
2016-04-18T05:32:32.755Z,955.62
2016-04-18T05:33:36.960Z,955.55
2016-04-18T05:35:04.434Z,955.62
2016-04-18T05:36:33.437Z,955.71
2016-04-18T05:37:54.052Z,955.74
2016-04-18T05:39:43.539Z,955.73
2016-04-18T05:41:03.451Z,955.74
2016-04-18T05:42:29.812Z,955.79
2016-04-18T05:43:43.737Z,955.79
2016-04-18T05:45:07.633Z,955.82
2016-04-18T05:46:30.932Z,955.84
2016-04-18T05:47:59.860Z,955.75
2016-04-18T05:49:22.206Z,955.78
2016-04-18T05:50:44.818Z,955.85
2016-04-18T05:52:06.745Z,955.87
2016-04-18T05:53:34.576Z,955.89
2016-04-18T05:54:56.270Z,955.86
2016-04-18T05:56:18.585Z,955.84
2016-04-18T05:59:30.999Z,955.93
2016-04-18T06:01:05.957Z,956
2016-04-18T06:02:42.241Z,956.01
2016-04-18T06:03:44.760Z,956.01
2016-04-18T06:04:45.669Z,956.04
2016-04-18T06:05:44.813Z,956.01
2016-04-18T06:06:44.799Z,956
2016-04-18T06:07:44.802Z,956.03
2016-04-18T06:08:45.554Z,955.97
2016-04-18T06:09:44.791Z,955.94
2016-04-18T06:10:44.746Z,955.95
2016-04-18T06:11:45.453Z,955.97
2016-04-18T06:12:44.768Z,955.99
2016-04-18T06:13:44.755Z,956
2016-04-18T06:14:44.712Z,956.01
2016-04-18T06:15:44.698Z,956.04
2016-04-18T06:16:44.685Z,956.03
2016-04-18T06:17:44.672Z,956.03
2016-04-18T06:18:44.676Z,956.06
2016-04-18T06:19:44.678Z,956.07
2016-04-18T06:20:44.603Z,956.05
2016-04-18T06:21:44.636Z,956.1
2016-04-18T06:22:44.623Z,956.12
2016-04-18T06:23:44.610Z,956.07
2016-04-18T06:24:45.488Z,956.1
2016-04-18T06:25:44.600Z,956.11
2016-04-18T06:26:44.603Z,956.12
2016-04-18T06:27:44.825Z,956.15
2016-04-18T06:28:44.561Z,956.16
2016-04-18T06:29:45.314Z,956.12
2016-04-18T06:30:44.505Z,956.2
2016-04-18T06:31:44.507Z,956.21
2016-04-18T06:32:44.510Z,956.23
2016-04-18T06:33:44.512Z,956.23
2016-04-18T06:34:44.516Z,956.23
2016-04-18T06:35:44.643Z,956.19
2016-04-18T06:36:45.333Z,956.23
2016-04-18T06:37:45.289Z,956.22
2016-04-18T06:38:44.447Z,956.18
2016-04-18T06:39:44.512Z,956.25
2016-04-18T06:40:44.453Z,956.27
2016-04-18T06:41:45.268Z,956.26
2016-04-18T06:42:45.802Z,956.28
2016-04-18T06:43:45.118Z,956.27
2016-04-18T06:44:44.604Z,956.3
2016-04-18T06:45:44.513Z,956.29
2016-04-18T06:46:45.250Z,956.27
2016-04-18T06:47:44.331Z,956.28
2016-04-18T06:48:45.162Z,956.3
2016-04-18T06:49:44.556Z,956.34
2016-04-18T06:50:44.355Z,956.37
2016-04-18T06:51:45.607Z,956.36
2016-04-18T06:52:44.532Z,956.36
2016-04-18T06:53:44.300Z,956.35
2016-04-18T06:54:44.740Z,956.41
2016-04-18T06:55:44.306Z,956.5
2016-04-18T06:56:44.528Z,956.46
2016-04-18T06:57:44.452Z,956.43
2016-04-18T06:58:46.126Z,956.42
2016-04-18T06:59:45.300Z,956.51
2016-04-18T07:00:45.085Z,956.5
2016-04-18T07:01:44.446Z,956.46
2016-04-18T07:02:44.699Z,956.48
2016-04-18T07:03:44.405Z,956.55
2016-04-18T07:04:44.251Z,956.55
2016-04-18T07:05:45.316Z,956.54
2016-04-18T07:06:44.679Z,956.55
2016-04-18T07:07:45.354Z,956.51
2016-04-18T07:08:44.216Z,956.82
2016-04-18T07:09:44.438Z,957
2016-04-18T07:10:45.033Z,956.79
2016-04-18T07:11:45.208Z,956.57
2016-04-18T07:12:44.413Z,956.64
2016-04-18T07:13:44.448Z,956.98
2016-04-18T07:14:44.200Z,956.68
2016-04-18T07:15:44.172Z,956.8
2016-04-18T07:16:45.018Z,956.7
2016-04-18T07:17:45.177Z,956.46
2016-04-18T07:18:45.164Z,956.5
2016-04-18T07:19:44.167Z,956.52
2016-04-18T07:20:45.247Z,956.58
2016-04-18T07:21:44.133Z,956.72
2016-04-18T07:22:45.260Z,956.56
2016-04-18T07:23:45.106Z,956.76
2016-04-18T07:24:44.172Z,956.87
2016-04-18T07:25:44.112Z,957.11
2016-04-18T07:26:44.068Z,957.54
2016-04-18T07:27:44.102Z,957.86
2016-04-18T07:28:44.308Z,957.65
2016-04-18T07:29:44.060Z,957.76
2016-04-18T07:30:44.094Z,958.02
2016-04-18T07:31:44.113Z,957.26
2016-04-18T07:33:44.102Z,956.46
2016-04-18T07:34:44.136Z,956.47
2016-04-18T07:35:44.951Z,956.48
2016-04-18T07:36:44.970Z,956.48
2016-04-18T07:37:44.050Z,956.5
2016-04-18T07:38:44.068Z,956.51
2016-04-18T07:39:44.696Z,956.53
2016-04-18T07:40:44.901Z,956.58
2016-04-18T07:41:44.045Z,956.59
2016-04-18T07:42:44.032Z,956.62
2016-04-18T07:43:44.034Z,956.65
2016-04-18T07:44:44.241Z,956.62
2016-04-18T07:45:44.244Z,956.68
2016-04-18T07:46:44.042Z,956.63
2016-04-18T07:47:44.030Z,956.66
2016-04-18T07:48:44.033Z,956.67
2016-04-18T07:49:44.005Z,956.66
2016-04-18T07:50:44.039Z,956.66
2016-04-18T07:51:44.214Z,956.7
2016-04-18T07:52:43.981Z,956.7
2016-04-18T07:53:43.953Z,956.69
2016-04-18T07:54:44.189Z,956.72
2016-04-18T07:55:44.021Z,956.69
2016-04-18T07:56:43.929Z,956.69
2016-04-18T07:57:44.213Z,956.64
2016-04-18T07:58:44.200Z,956.63
2016-04-18T07:59:43.953Z,956.68
2016-04-18T08:00:43.893Z,956.64
2016-04-18T08:01:43.974Z,956.63
2016-04-18T08:02:43.929Z,956.65
2016-04-18T08:03:43.933Z,956.62
2016-04-18T08:04:44.138Z,956.66
2016-04-18T08:05:44.094Z,956.62
2016-04-18T08:06:43.846Z,956.63
2016-04-18T08:07:44.099Z,956.62
2016-04-18T08:08:44.884Z,956.66
2016-04-18T08:09:44.090Z,956.67
2016-04-18T08:10:44.607Z,956.65
2016-04-18T08:11:44.673Z,956.67
2016-04-18T08:12:44.206Z,956.67
2016-04-18T08:13:44.975Z,956.66
2016-04-18T08:14:43.806Z,956.68
2016-04-18T08:15:45.245Z,956.64
2016-04-18T08:16:43.858Z,956.61
2016-04-18T08:17:44.048Z,956.64
2016-04-18T08:18:44.004Z,956.64
2016-04-18T08:19:43.803Z,956.64
2016-04-18T08:20:44.667Z,956.62
2016-04-18T08:21:43.794Z,956.62
2016-04-18T08:22:43.781Z,956.6
2016-04-18T08:23:43.768Z,956.61
2016-04-18T08:24:43.725Z,956.58
2016-04-18T08:25:43.914Z,956.62
2016-04-18T08:26:44.760Z,956.61
2016-04-18T08:27:44.450Z,956.63
2016-04-18T08:28:44.952Z,956.58
2016-04-18T08:29:44.799Z,956.61
2016-04-18T08:30:43.708Z,956.6
2016-04-18T08:31:43.711Z,956.58
2016-04-18T08:32:43.699Z,956.56
2016-04-18T08:33:43.670Z,956.54
2016-04-18T08:34:43.704Z,956.51
2016-04-18T08:35:43.659Z,956.47
2016-04-18T08:36:44.882Z,956.46
2016-04-18T08:37:44.790Z,956.49
2016-04-18T08:38:43.637Z,956.48
2016-04-18T08:39:43.843Z,956.47
2016-04-18T08:40:44.063Z,956.48
2016-04-18T08:41:44.207Z,956.48
2016-04-18T08:42:44.865Z,956.5
2016-04-18T08:43:44.228Z,956.49
2016-04-18T08:44:44.653Z,956.49
2016-04-18T08:45:43.781Z,956.49
2016-04-18T08:46:44.173Z,956.49
2016-04-18T08:47:44.770Z,956.49
2016-04-18T08:48:44.163Z,956.45
2016-04-18T08:49:43.759Z,956.49
2016-04-18T08:50:43.731Z,956.45
2016-04-18T08:51:44.156Z,956.46
2016-04-18T08:52:44.143Z,956.43
2016-04-18T08:53:43.723Z,956.44
2016-04-18T08:54:43.695Z,956.44
2016-04-18T08:55:44.933Z,956.45
2016-04-18T08:56:43.731Z,956.44
2016-04-18T08:57:45.140Z,956.46
2016-04-18T08:58:43.674Z,956.44
2016-04-18T08:59:43.661Z,956.4
2016-04-18T09:00:43.429Z,956.42
2016-04-18T09:01:44.870Z,956.44
2016-04-18T09:02:43.638Z,956.46
2016-04-18T09:03:45.625Z,956.51
2016-04-18T09:04:46.018Z,956.53
2016-04-18T09:05:46.147Z,956.53
2016-04-18T09:06:47.040Z,956.52
2016-04-18T09:07:46.308Z,956.53
2016-04-18T09:08:45.968Z,956.55
2016-04-18T09:09:46.002Z,956.51
2016-04-18T09:10:45.815Z,956.54
2016-04-18T09:11:45.771Z,956.54
2016-04-18T09:12:46.088Z,956.51
